Marion, SC

9:51 AM EST on February 21, 2017 (GMT -0500)
Marion County

Weather History for KMAO - January, 2014

Change the Weather History Date:

Saturday, January 11, 2014

  Actual Average (KFLO) Record (KFLO)
Temperature  
Mean Temperature 64 °F -  
Max Temperature 73 °F 53 °F 81 °F (1949)
Min Temperature 55 °F 33 °F 10 °F (1982)
Degree Days  
Heating Degree Days 1    
Growing Degree Days 14 (Base 50)    
Moisture  
Dew Point 61 °F    
Average Humidity 93    
Maximum Humidity 100    
Minimum Humidity 73    
Precipitation  
Precipitation 0.73 in - - ()
Sea Level Pressure  
Sea Level Pressure 29.85 in    
Wind  
Wind Speed 9 mph (SSW)    
Max Wind Speed 26 mph    
Max Gust Speed 34 mph    
Visibility 8 miles    
Events Rain , Thunderstorm    
Averages and records for this station are not official NWS values.
T = Trace of Precipitation, MM = Missing Value Source: NWS Daily Summary

Daily Weather History Graph

Daily Weather History Graph

Search for Another Location

Airport or City:

Trip Planner

Search our weather history database for the weather conditions in past years. The results will help you decide how hot, cold, wet, or windy it might be!

Date:

Astronomy

Jan. 11, 2014 Rise Set
Actual Time 7:23 AM EST 5:27 PM EST
Civil Twilight 6:56 AM EST 5:54 PM EST
Nautical Twilight 6:25 AM EST 6:25 PM EST
Astronomical Twilight 5:55 AM EST 6:55 PM EST
Moon 2:08 PM EST (1/11) 3:29 AM EST (1/11)
Length of Visible Light 10h 58m
Length of Day
10h 03m
Waxing Gibbous, 83% of the Moon is Illuminated
Jan 11
Waxing Gibbous
Jan 15
Full
Jan 24
Last Quarter
Jan 30
New
Feb 6
First Quarter

Hourly Weather History & Observations

Time (EST) Temp. Dew Point Humidity Pressure Visibility Wind Dir Wind Speed Gust Speed Precip Events Conditions
12:15 AM 62.6 °F 62.6 °F 100% 30.08 in 7.0 mi South 3.5 mph - N/A   Scattered Clouds
12:35 AM 62.6 °F 60.8 °F 94% 30.08 in 7.0 mi SSW 3.5 mph - N/A   Scattered Clouds
12:55 AM 59.0 °F 59.0 °F 100% 30.07 in 1.2 mi SE 3.5 mph - N/A   Overcast
1:15 AM 62.6 °F 62.6 °F 100% 30.06 in 7.0 mi South 3.5 mph - N/A   Overcast
1:35 AM 62.6 °F 62.6 °F 100% 30.05 in 7.0 mi SSE 3.5 mph - N/A   Overcast
1:55 AM 62.6 °F 62.6 °F 100% 30.03 in 7.0 mi SSE 6.9 mph - N/A   Overcast
2:15 AM 62.6 °F 62.6 °F 100% 30.02 in 7.0 mi SSE 9.2 mph - N/A   Overcast
2:35 AM 62.6 °F 62.6 °F 100% 30.02 in 10.0 mi SSE 8.1 mph - N/A   Overcast
2:55 AM 62.6 °F 62.6 °F 100% 30.01 in 10.0 mi South 6.9 mph - N/A   Mostly Cloudy
3:15 AM 62.6 °F 60.8 °F 94% 30.01 in 10.0 mi South 4.6 mph - N/A   Scattered Clouds
3:35 AM 60.8 °F 60.8 °F 100% 30.01 in 5.0 mi South 4.6 mph - N/A   Scattered Clouds
3:55 AM 60.8 °F 60.8 °F 100% 30.01 in 10.0 mi South 4.6 mph - N/A   Overcast
4:15 AM 62.6 °F 62.6 °F 100% 29.99 in 10.0 mi South 5.8 mph - N/A   Overcast
4:35 AM 62.6 °F 62.6 °F 100% 29.98 in 7.0 mi South 8.1 mph - N/A   Overcast
4:55 AM 62.6 °F 62.6 °F 100% 29.97 in 7.0 mi South 6.9 mph - N/A   Overcast
5:15 AM 62.6 °F 62.6 °F 100% 29.96 in 10.0 mi South 9.2 mph - N/A   Overcast
5:35 AM 62.6 °F 62.6 °F 100% 29.97 in 7.0 mi South 10.4 mph - N/A   Overcast
5:55 AM 64.4 °F 64.4 °F 100% 29.96 in 4.0 mi South 9.2 mph - N/A   Overcast
6:15 AM 64.4 °F 64.4 °F 100% 29.96 in 7.0 mi South 9.2 mph 16.1 mph N/A   Overcast
6:35 AM 64.4 °F 64.4 °F 100% 29.96 in 7.0 mi South 9.2 mph - N/A   Overcast
6:55 AM 64.4 °F 64.4 °F 100% 29.95 in 7.0 mi South 11.5 mph 17.3 mph N/A   Overcast
7:15 AM 64.4 °F 64.4 °F 100% 29.95 in 10.0 mi South 11.5 mph - N/A   Overcast
7:35 AM 66.2 °F 64.4 °F 94% 29.94 in 10.0 mi South 12.7 mph - N/A   Overcast
7:55 AM 66.2 °F 64.4 °F 94% 29.93 in 10.0 mi South 11.5 mph - N/A   Overcast
8:15 AM 66.2 °F 64.4 °F 94% 29.93 in 10.0 mi South 11.5 mph - N/A   Overcast
8:35 AM 68.0 °F 64.4 °F 88% 29.92 in 10.0 mi South 13.8 mph 20.7 mph N/A   Overcast
8:55 AM 68.0 °F 66.2 °F 94% 29.92 in 10.0 mi South 12.7 mph 20.7 mph N/A   Overcast
9:15 AM 68.0 °F 64.4 °F 88% 29.92 in 10.0 mi South 13.8 mph 23.0 mph N/A   Overcast
9:35 AM 69.8 °F 64.4 °F 83% 29.92 in 10.0 mi SSW 17.3 mph 21.9 mph N/A   Overcast
9:55 AM 69.8 °F 64.4 °F 83% 29.92 in 10.0 mi SSW 16.1 mph 23.0 mph N/A   Overcast
10:15 AM 69.8 °F 64.4 °F 83% 29.92 in 10.0 mi SSW 11.5 mph 19.6 mph N/A   Overcast
10:35 AM 69.8 °F 64.4 °F 83% 29.90 in 10.0 mi SSW 20.7 mph 26.5 mph N/A   Overcast
10:55 AM 71.6 °F 64.4 °F 78% 29.89 in 10.0 mi SSW 20.7 mph 27.6 mph N/A   Overcast
11:15 AM 71.6 °F 64.4 °F 78% 29.87 in 10.0 mi SSW 17.3 mph 31.1 mph N/A   Overcast
11:35 AM 71.6 °F 64.4 °F 78% 29.85 in 10.0 mi South 12.7 mph 24.2 mph N/A   Overcast
11:55 AM 71.6 °F 64.4 °F 78% 29.83 in 10.0 mi South 16.1 mph 21.9 mph N/A   Overcast
12:15 PM 71.6 °F 64.4 °F 78% 29.81 in 10.0 mi SSW 23.0 mph 31.1 mph N/A   Overcast
12:35 PM 71.6 °F 64.4 °F 78% 29.79 in 10.0 mi SSW 18.4 mph 31.1 mph N/A   Overcast
12:55 PM 73.4 °F 64.4 °F 73% 29.77 in 10.0 mi South 23.0 mph 32.2 mph N/A   Overcast
1:15 PM 73.4 °F 64.4 °F 73% 29.76 in 10.0 mi SSW 26.5 mph 34.5 mph N/A Thunderstorm Overcast
1:35 PM 71.6 °F 68.0 °F 88% 29.76 in 10.0 mi SSW 15.0 mph 24.2 mph 0.03 in   Overcast
1:55 PM 71.6 °F 66.2 °F 83% 29.75 in 10.0 mi SSW 15.0 mph 26.5 mph 0.03 in   Overcast
2:15 PM 69.8 °F 66.2 °F 88% 29.75 in 10.0 mi SW 11.5 mph 21.9 mph N/A Rain Light Rain
2:35 PM 69.8 °F 66.2 °F 88% 29.74 in 10.0 mi SW 10.4 mph 18.4 mph N/A Rain Light Rain
2:55 PM 69.8 °F 64.4 °F 83% 29.74 in 4.0 mi SW 12.7 mph 20.7 mph 0.05 in Rain Heavy Rain
3:15 PM 68.0 °F 66.2 °F 94% 29.72 in 10.0 mi SW 9.2 mph - N/A Rain Light Rain
3:35 PM 68.0 °F 66.2 °F 94% 29.74 in 7.0 mi WSW 8.1 mph - 0.01 in Rain Rain
3:55 PM 62.6 °F 57.2 °F 82% 29.78 in 5.0 mi WNW 19.6 mph 34.5 mph 0.08 in Rain Heavy Rain
4:15 PM 59.0 °F 55.4 °F 88% 29.76 in 4.0 mi WNW 6.9 mph 18.4 mph 0.09 in Rain Heavy Rain
4:35 PM 59.0 °F 55.4 °F 88% 29.75 in 7.0 mi WNW 5.8 mph - 0.17 in Rain Rain
4:55 PM 57.2 °F 55.4 °F 94% 29.73 in 1.8 mi Calm Calm - 0.32 in Rain Heavy Rain
5:15 PM 57.2 °F 57.2 °F 100% 29.75 in 5.0 mi South 5.8 mph - 0.04 in Rain , Thunderstorm Rain
5:35 PM 57.2 °F 55.4 °F 94% 29.74 in 5.0 mi SE 3.5 mph - 0.08 in Rain , Thunderstorm Thunderstorms and Rain
5:55 PM 57.2 °F 55.4 °F 94% 29.74 in 7.0 mi South 5.8 mph - 0.13 in Rain , Thunderstorm Rain
6:15 PM 55.4 °F 55.4 °F 100% 29.73 in 7.0 mi SSE 5.8 mph - 0.05 in Rain , Thunderstorm Rain
6:35 PM 55.4 °F 55.4 °F 100% 29.70 in 7.0 mi SSE 5.8 mph - 0.10 in Rain Rain
6:55 PM 55.4 °F 55.4 °F 100% 29.71 in 10.0 mi SSE 6.9 mph - 0.11 in Rain Light Rain
7:15 PM 55.4 °F 55.4 °F 100% 29.72 in 10.0 mi South 5.8 mph - N/A   Scattered Clouds
7:35 PM 55.4 °F 55.4 °F 100% 29.73 in 10.0 mi South 8.1 mph - N/A   Scattered Clouds
7:55 PM 55.4 °F 55.4 °F 100% 29.73 in 10.0 mi South 6.9 mph - N/A   Scattered Clouds
8:15 PM 55.4 °F 55.4 °F 100% 29.72 in 10.0 mi SSW 5.8 mph - N/A   Scattered Clouds
8:35 PM 55.4 °F 55.4 °F 100% 29.73 in 10.0 mi SW 5.8 mph - N/A   Clear
8:55 PM 55.4 °F 55.4 °F 100% 29.72 in 10.0 mi SSW 8.1 mph - N/A   Clear
9:15 PM 57.2 °F 55.4 °F 94% 29.72 in 10.0 mi SW 9.2 mph - N/A   Clear
9:35 PM 57.2 °F 55.4 °F 94% 29.72 in 10.0 mi SW 8.1 mph - N/A   Clear
9:55 PM 57.2 °F 55.4 °F 94% 29.72 in 10.0 mi SW 5.8 mph - N/A   Scattered Clouds
10:15 PM 57.2 °F 55.4 °F 94% 29.72 in 10.0 mi SW 9.2 mph - N/A   Mostly Cloudy
10:35 PM 57.2 °F 57.2 °F 100% 29.72 in 10.0 mi SW 10.4 mph 16.1 mph N/A   Overcast
10:55 PM 57.2 °F 55.4 °F 94% 29.72 in 10.0 mi SW 9.2 mph 16.1 mph N/A   Scattered Clouds
11:15 PM 57.2 °F 55.4 °F 94% 29.73 in 10.0 mi West 9.2 mph - N/A   Mostly Cloudy
11:35 PM 57.2 °F 55.4 °F 94% 29.74 in 10.0 mi WSW 8.1 mph - N/A   Overcast
11:55 PM 57.2 °F 55.4 °F 94% 29.77 in 10.0 mi West 11.5 mph 29.9 mph 0.01 in   Overcast